RJNT(METAR)
07/17 16:00
METAR RJNT 170700Z 36007KT 9999 FEW020 SCT050 28/21 Q1012 RMK 1CU020
3SC050 A2988=
戻る
トップページへ戻る
IMOC Co,.Ltd.